sensor_id;sensor_type;location;lat;lon;timestamp;temperature;humidity
47805;DHT22;33568;45.286;9.900;2022-07-23T00:01:35;33.40;54.50
47805;DHT22;33568;45.286;9.900;2022-07-23T00:04:02;33.40;54.50
47805;DHT22;33568;45.286;9.900;2022-07-23T00:06:28;33.30;54.50
47805;DHT22;33568;45.286;9.900;2022-07-23T00:08:54;33.30;54.50
47805;DHT22;33568;45.286;9.900;2022-07-23T00:11:21;33.20;54.50
47805;DHT22;33568;45.286;9.900;2022-07-23T00:13:48;33.20;54.60
47805;DHT22;33568;45.286;9.900;2022-07-23T00:16:15;33.20;54.70
47805;DHT22;33568;45.286;9.900;2022-07-23T00:18:41;33.20;54.70
47805;DHT22;33568;45.286;9.900;2022-07-23T00:21:07;33.20;54.70
47805;DHT22;33568;45.286;9.900;2022-07-23T00:23:35;33.20;54.60
47805;DHT22;33568;45.286;9.900;2022-07-23T00:26:01;33.30;54.60
47805;DHT22;33568;45.286;9.900;2022-07-23T00:28:28;33.30;54.50
47805;DHT22;33568;45.286;9.900;2022-07-23T00:30:55;33.30;54.50
47805;DHT22;33568;45.286;9.900;2022-07-23T00:33:21;33.30;54.60
47805;DHT22;33568;45.286;9.900;2022-07-23T00:35:48;33.30;54.50
47805;DHT22;33568;45.286;9.900;2022-07-23T00:38:14;33.30;55.00
47805;DHT22;33568;45.286;9.900;2022-07-23T00:40:41;33.40;54.20
47805;DHT22;33568;45.286;9.900;2022-07-23T00:43:07;33.40;53.90
47805;DHT22;33568;45.286;9.900;2022-07-23T00:45:34;33.30;53.70
47805;DHT22;33568;45.286;9.900;2022-07-23T00:48:01;33.20;53.80
47805;DHT22;33568;45.286;9.900;2022-07-23T00:50:28;33.10;54.00
47805;DHT22;33568;45.286;9.900;2022-07-23T00:52:55;33.00;54.00
47805;DHT22;33568;45.286;9.900;2022-07-23T00:55:22;33.00;54.10
47805;DHT22;33568;45.286;9.900;2022-07-23T00:57:50;33.00;54.10
47805;DHT22;33568;45.286;9.900;2022-07-23T01:00:17;33.00;54.00
47805;DHT22;33568;45.286;9.900;2022-07-23T01:02:44;33.00;54.10
47805;DHT22;33568;45.286;9.900;2022-07-23T01:05:11;33.00;54.20
47805;DHT22;33568;45.286;9.900;2022-07-23T01:07:38;33.00;54.20
47805;DHT22;33568;45.286;9.900;2022-07-23T01:10:05;33.00;54.10
47805;DHT22;33568;45.286;9.900;2022-07-23T01:12:53;33.00;54.10
47805;DHT22;33568;45.286;9.900;2022-07-23T01:15:20;33.00;54.10
47805;DHT22;33568;45.286;9.900;2022-07-23T01:17:46;32.90;54.10
47805;DHT22;33568;45.286;9.900;2022-07-23T01:20:13;33.00;54.20
47805;DHT22;33568;45.286;9.900;2022-07-23T01:22:41;33.00;54.20
47805;DHT22;33568;45.286;9.900;2022-07-23T01:25:07;33.00;54.10
47805;DHT22;33568;45.286;9.900;2022-07-23T01:27:35;32.90;54.10
47805;DHT22;33568;45.286;9.900;2022-07-23T01:30:04;32.90;54.20
47805;DHT22;33568;45.286;9.900;2022-07-23T01:32:31;32.90;54.00
47805;DHT22;33568;45.286;9.900;2022-07-23T01:34:58;32.90;54.00
47805;DHT22;33568;45.286;9.900;2022-07-23T01:37:25;32.90;53.80
47805;DHT22;33568;45.286;9.900;2022-07-23T01:39:51;32.80;53.80
47805;DHT22;33568;45.286;9.900;2022-07-23T01:42:18;32.80;53.80
47805;DHT22;33568;45.286;9.900;2022-07-23T01:44:44;32.80;53.80
47805;DHT22;33568;45.286;9.900;2022-07-23T01:47:18;32.80;53.80
47805;DHT22;33568;45.286;9.900;2022-07-23T01:49:45;32.70;53.70
47805;DHT22;33568;45.286;9.900;2022-07-23T01:52:11;32.70;53.80
47805;DHT22;33568;45.286;9.900;2022-07-23T01:54:43;32.70;53.80
47805;DHT22;33568;45.286;9.900;2022-07-23T01:57:10;32.70;53.80
47805;DHT22;33568;45.286;9.900;2022-07-23T01:59:37;32.60;53.80
47805;DHT22;33568;45.286;9.900;2022-07-23T02:02:06;32.60;53.80
47805;DHT22;33568;45.286;9.900;2022-07-23T02:04:32;32.60;53.90
47805;DHT22;33568;45.286;9.900;2022-07-23T02:07:03;32.50;54.00
47805;DHT22;33568;45.286;9.900;2022-07-23T02:09:30;32.40;54.00
47805;DHT22;33568;45.286;9.900;2022-07-23T02:11:57;32.50;54.10
47805;DHT22;33568;45.286;9.900;2022-07-23T02:14:25;32.40;54.10
47805;DHT22;33568;45.286;9.900;2022-07-23T02:16:52;32.40;54.10
47805;DHT22;33568;45.286;9.900;2022-07-23T02:19:18;32.40;54.10
47805;DHT22;33568;45.286;9.900;2022-07-23T02:21:45;32.40;54.00
47805;DHT22;33568;45.286;9.900;2022-07-23T02:24:12;32.30;54.00
47805;DHT22;33568;45.286;9.900;2022-07-23T02:26:43;32.30;53.90
47805;DHT22;33568;45.286;9.900;2022-07-23T02:29:09;32.20;53.90
47805;DHT22;33568;45.286;9.900;2022-07-23T02:31:37;32.20;53.80
47805;DHT22;33568;45.286;9.900;2022-07-23T02:34:03;32.10;53.70
47805;DHT22;33568;45.286;9.900;2022-07-23T02:36:30;32.10;53.50
47805;DHT22;33568;45.286;9.900;2022-07-23T02:38:57;32.10;53.50
47805;DHT22;33568;45.286;9.900;2022-07-23T02:41:24;32.00;53.40
47805;DHT22;33568;45.286;9.900;2022-07-23T02:43:50;31.90;53.60
47805;DHT22;33568;45.286;9.900;2022-07-23T02:46:17;31.90;53.70
47805;DHT22;33568;45.286;9.900;2022-07-23T02:48:43;31.80;53.70
47805;DHT22;33568;45.286;9.900;2022-07-23T02:51:10;31.90;53.70
47805;DHT22;33568;45.286;9.900;2022-07-23T02:53:42;31.90;53.50
47805;DHT22;33568;45.286;9.900;2022-07-23T02:56:10;31.80;53.60
47805;DHT22;33568;45.286;9.900;2022-07-23T02:58:36;31.80;53.80
47805;DHT22;33568;45.286;9.900;2022-07-23T03:01:04;31.90;53.80
47805;DHT22;33568;45.286;9.900;2022-07-23T03:03:31;31.90;53.70
47805;DHT22;33568;45.286;9.900;2022-07-23T03:05:57;31.90;53.70
47805;DHT22;33568;45.286;9.900;2022-07-23T03:08:25;32.00;53.90
47805;DHT22;33568;45.286;9.900;2022-07-23T03:10:52;32.00;53.60
47805;DHT22;33568;45.286;9.900;2022-07-23T03:13:19;32.10;53.40
47805;DHT22;33568;45.286;9.900;2022-07-23T03:15:45;32.20;54.00
47805;DHT22;33568;45.286;9.900;2022-07-23T03:18:12;32.20;53.20
47805;DHT22;33568;45.286;9.900;2022-07-23T03:20:38;32.20;53.00
47805;DHT22;33568;45.286;9.900;2022-07-23T03:23:05;32.10;53.00
47805;DHT22;33568;45.286;9.900;2022-07-23T03:25:32;32.00;53.00
47805;DHT22;33568;45.286;9.900;2022-07-23T03:28:00;31.90;53.10
47805;DHT22;33568;45.286;9.900;2022-07-23T03:30:29;32.00;53.20
47805;DHT22;33568;45.286;9.900;2022-07-23T03:32:55;32.10;53.30
47805;DHT22;33568;45.286;9.900;2022-07-23T03:35:23;32.30;53.10
47805;DHT22;33568;45.286;9.900;2022-07-23T03:38:05;32.20;53.00
47805;DHT22;33568;45.286;9.900;2022-07-23T03:40:32;32.20;53.00
47805;DHT22;33568;45.286;9.900;2022-07-23T03:42:58;32.10;52.90
47805;DHT22;33568;45.286;9.900;2022-07-23T03:45:25;32.00;52.90
47805;DHT22;33568;45.286;9.900;2022-07-23T03:47:51;32.00;53.00
47805;DHT22;33568;45.286;9.900;2022-07-23T03:50:18;31.90;53.00
47805;DHT22;33568;45.286;9.900;2022-07-23T03:52:45;31.80;53.00
47805;DHT22;33568;45.286;9.900;2022-07-23T03:55:12;31.80;53.20
47805;DHT22;33568;45.286;9.900;2022-07-23T03:57:38;31.70;53.30
47805;DHT22;33568;45.286;9.900;2022-07-23T04:00:08;31.70;53.40
47805;DHT22;33568;45.286;9.900;2022-07-23T04:02:39;31.60;53.60
47805;DHT22;33568;45.286;9.900;2022-07-23T04:05:08;31.60;53.70
47805;DHT22;33568;45.286;9.900;2022-07-23T04:07:35;31.60;53.60
47805;DHT22;33568;45.286;9.900;2022-07-23T04:10:02;31.60;53.60
47805;DHT22;33568;45.286;9.900;2022-07-23T04:12:29;31.70;53.30
47805;DHT22;33568;45.286;9.900;2022-07-23T04:14:56;31.70;52.90
47805;DHT22;33568;45.286;9.900;2022-07-23T04:17:23;31.60;52.70
47805;DHT22;33568;45.286;9.900;2022-07-23T04:19:51;31.50;52.70
47805;DHT22;33568;45.286;9.900;2022-07-23T04:22:22;31.30;52.90
47805;DHT22;33568;45.286;9.900;2022-07-23T04:24:48;31.10;53.20
47805;DHT22;33568;45.286;9.900;2022-07-23T04:27:16;31.10;53.40
47805;DHT22;33568;45.286;9.900;2022-07-23T04:29:43;31.00;53.40
47805;DHT22;33568;45.286;9.900;2022-07-23T04:32:09;31.00;53.70
47805;DHT22;33568;45.286;9.900;2022-07-23T04:34:36;30.80;53.80
47805;DHT22;33568;45.286;9.900;2022-07-23T04:37:03;30.70;54.00
47805;DHT22;33568;45.286;9.900;2022-07-23T04:39:31;30.50;54.40
47805;DHT22;33568;45.286;9.900;2022-07-23T04:41:58;30.30;54.80
47805;DHT22;33568;45.286;9.900;2022-07-23T04:44:25;30.20;55.00
47805;DHT22;33568;45.286;9.900;2022-07-23T04:46:51;30.00;55.40
47805;DHT22;33568;45.286;9.900;2022-07-23T04:49:19;29.90;55.70
47805;DHT22;33568;45.286;9.900;2022-07-23T04:51:46;29.90;55.90
47805;DHT22;33568;45.286;9.900;2022-07-23T04:54:12;30.00;56.00
47805;DHT22;33568;45.286;9.900;2022-07-23T04:56:39;30.00;56.00
47805;DHT22;33568;45.286;9.900;2022-07-23T04:59:06;29.90;56.20
47805;DHT22;33568;45.286;9.900;2022-07-23T05:01:32;29.80;56.40
47805;DHT22;33568;45.286;9.900;2022-07-23T05:04:00;30.00;56.50
47805;DHT22;33568;45.286;9.900;2022-07-23T05:06:32;30.30;56.10
47805;DHT22;33568;45.286;9.900;2022-07-23T05:09:00;30.50;55.70
47805;DHT22;33568;45.286;9.900;2022-07-23T05:11:26;30.50;55.60
47805;DHT22;33568;45.286;9.900;2022-07-23T05:13:53;30.50;55.50
47805;DHT22;33568;45.286;9.900;2022-07-23T05:16:20;30.60;55.60
47805;DHT22;33568;45.286;9.900;2022-07-23T05:18:48;30.60;55.50
47805;DHT22;33568;45.286;9.900;2022-07-23T05:21:14;30.70;55.40
47805;DHT22;33568;45.286;9.900;2022-07-23T05:23:41;30.70;55.40
47805;DHT22;33568;45.286;9.900;2022-07-23T05:26:09;30.50;55.80
47805;DHT22;33568;45.286;9.900;2022-07-23T05:28:36;30.50;56.00
47805;DHT22;33568;45.286;9.900;2022-07-23T05:31:04;30.50;55.90
47805;DHT22;33568;45.286;9.900;2022-07-23T05:33:31;30.50;55.90
47805;DHT22;33568;45.286;9.900;2022-07-23T05:36:02;30.60;55.70
47805;DHT22;33568;45.286;9.900;2022-07-23T05:38:32;30.80;55.50
47805;DHT22;33568;45.286;9.900;2022-07-23T05:41:02;31.00;55.30
47805;DHT22;33568;45.286;9.900;2022-07-23T05:43:29;31.10;55.00
47805;DHT22;33568;45.286;9.900;2022-07-23T05:45:58;31.30;54.90
47805;DHT22;33568;45.286;9.900;2022-07-23T05:48:24;31.30;54.70
47805;DHT22;33568;45.286;9.900;2022-07-23T05:51:02;31.40;54.50
47805;DHT22;33568;45.286;9.900;2022-07-23T05:53:34;31.40;54.30
47805;DHT22;33568;45.286;9.900;2022-07-23T05:56:05;31.50;54.30
47805;DHT22;33568;45.286;9.900;2022-07-23T05:58:32;31.60;54.20
47805;DHT22;33568;45.286;9.900;2022-07-23T06:00:58;31.70;54.30
47805;DHT22;33568;45.286;9.900;2022-07-23T06:03:27;31.60;54.30
47805;DHT22;33568;45.286;9.900;2022-07-23T06:05:56;31.60;54.70
47805;DHT22;33568;45.286;9.900;2022-07-23T06:08:22;31.50;55.20
47805;DHT22;33568;45.286;9.900;2022-07-23T06:10:49;31.50;55.50
47805;DHT22;33568;45.286;9.900;2022-07-23T06:13:17;31.50;55.70
47805;DHT22;33568;45.286;9.900;2022-07-23T06:15:44;31.40;55.70
47805;DHT22;33568;45.286;9.900;2022-07-23T06:18:11;31.50;55.70
47805;DHT22;33568;45.286;9.900;2022-07-23T06:20:39;31.70;55.70
47805;DHT22;33568;45.286;9.900;2022-07-23T06:23:06;31.80;55.70
47805;DHT22;33568;45.286;9.900;2022-07-23T06:25:34;31.90;55.40
47805;DHT22;33568;45.286;9.900;2022-07-23T06:28:00;32.10;55.00
47805;DHT22;33568;45.286;9.900;2022-07-23T06:30:26;32.30;54.60
47805;DHT22;33568;45.286;9.900;2022-07-23T06:32:54;32.20;54.10
47805;DHT22;33568;45.286;9.900;2022-07-23T06:35:20;32.20;53.90
47805;DHT22;33568;45.286;9.900;2022-07-23T06:37:47;32.20;53.60
47805;DHT22;33568;45.286;9.900;2022-07-23T06:40:15;32.10;53.50
47805;DHT22;33568;45.286;9.900;2022-07-23T06:42:41;32.10;53.40
47805;DHT22;33568;45.286;9.900;2022-07-23T06:45:15;32.10;53.40
47805;DHT22;33568;45.286;9.900;2022-07-23T06:47:42;32.20;53.40
47805;DHT22;33568;45.286;9.900;2022-07-23T06:50:09;32.20;53.50
47805;DHT22;33568;45.286;9.900;2022-07-23T06:52:36;32.20;53.60
47805;DHT22;33568;45.286;9.900;2022-07-23T06:55:05;32.30;53.80
47805;DHT22;33568;45.286;9.900;2022-07-23T06:57:32;32.30;53.80
47805;DHT22;33568;45.286;9.900;2022-07-23T06:59:58;32.40;53.90
47805;DHT22;33568;45.286;9.900;2022-07-23T07:02:25;32.50;53.80
47805;DHT22;33568;45.286;9.900;2022-07-23T07:04:52;32.60;53.80
47805;DHT22;33568;45.286;9.900;2022-07-23T07:07:19;32.60;54.30
47805;DHT22;33568;45.286;9.900;2022-07-23T07:09:45;32.60;53.90
47805;DHT22;33568;45.286;9.900;2022-07-23T07:12:12;32.70;54.10
47805;DHT22;33568;45.286;9.900;2022-07-23T07:14:38;32.80;53.90
47805;DHT22;33568;45.286;9.900;2022-07-23T07:17:04;32.90;53.50
47805;DHT22;33568;45.286;9.900;2022-07-23T07:19:31;33.00;53.40
47805;DHT22;33568;45.286;9.900;2022-07-23T07:21:57;33.10;53.20
47805;DHT22;33568;45.286;9.900;2022-07-23T07:24:24;33.20;52.70
47805;DHT22;33568;45.286;9.900;2022-07-23T07:26:50;33.20;51.80
47805;DHT22;33568;45.286;9.900;2022-07-23T07:29:16;33.20;51.20
47805;DHT22;33568;45.286;9.900;2022-07-23T07:31:43;33.30;50.80
47805;DHT22;33568;45.286;9.900;2022-07-23T07:34:12;33.40;50.70
47805;DHT22;33568;45.286;9.900;2022-07-23T07:36:39;33.50;50.20
47805;DHT22;33568;45.286;9.900;2022-07-23T07:39:05;33.60;50.20
47805;DHT22;33568;45.286;9.900;2022-07-23T07:41:33;33.60;50.20
47805;DHT22;33568;45.286;9.900;2022-07-23T07:43:59;33.80;49.90
47805;DHT22;33568;45.286;9.900;2022-07-23T07:46:25;33.80;49.70
47805;DHT22;33568;45.286;9.900;2022-07-23T07:48:54;33.80;50.00
47805;DHT22;33568;45.286;9.900;2022-07-23T07:51:20;33.80;50.40
47805;DHT22;33568;45.286;9.900;2022-07-23T07:53:46;33.80;50.50
47805;DHT22;33568;45.286;9.900;2022-07-23T07:56:13;33.80;50.30
47805;DHT22;33568;45.286;9.900;2022-07-23T07:58:40;33.90;50.90
47805;DHT22;33568;45.286;9.900;2022-07-23T08:01:07;33.90;50.10
47805;DHT22;33568;45.286;9.900;2022-07-23T08:03:33;34.00;50.30
47805;DHT22;33568;45.286;9.900;2022-07-23T08:05:59;34.10;50.40
47805;DHT22;33568;45.286;9.900;2022-07-23T08:08:26;34.30;50.30
47805;DHT22;33568;45.286;9.900;2022-07-23T08:10:52;34.50;49.60
47805;DHT22;33568;45.286;9.900;2022-07-23T08:13:19;34.60;49.10
47805;DHT22;33568;45.286;9.900;2022-07-23T08:15:45;34.70;48.90
47805;DHT22;33568;45.286;9.900;2022-07-23T08:18:12;34.80;48.90
47805;DHT22;33568;45.286;9.900;2022-07-23T08:20:38;34.80;48.50
47805;DHT22;33568;45.286;9.900;2022-07-23T08:23:07;34.90;47.80
47805;DHT22;33568;45.286;9.900;2022-07-23T08:25:36;35.00;47.20
47805;DHT22;33568;45.286;9.900;2022-07-23T08:28:05;35.10;46.90
47805;DHT22;33568;45.286;9.900;2022-07-23T08:30:33;35.00;46.90
47805;DHT22;33568;45.286;9.900;2022-07-23T08:33:01;35.20;47.00
47805;DHT22;33568;45.286;9.900;2022-07-23T08:35:36;35.30;46.90
47805;DHT22;33568;45.286;9.900;2022-07-23T08:38:06;35.40;46.70
47805;DHT22;33568;45.286;9.900;2022-07-23T08:40:35;35.60;46.60
47805;DHT22;33568;45.286;9.900;2022-07-23T08:43:06;35.70;46.30
47805;DHT22;33568;45.286;9.900;2022-07-23T08:45:41;35.60;46.00
47805;DHT22;33568;45.286;9.900;2022-07-23T08:48:13;35.60;45.70
47805;DHT22;33568;45.286;9.900;2022-07-23T08:50:45;35.70;45.60
47805;DHT22;33568;45.286;9.900;2022-07-23T08:53:13;35.70;45.10
47805;DHT22;33568;45.286;9.900;2022-07-23T08:55:40;35.90;45.20
47805;DHT22;33568;45.286;9.900;2022-07-23T08:58:09;36.00;45.10
47805;DHT22;33568;45.286;9.900;2022-07-23T09:00:35;36.10;44.50
47805;DHT22;33568;45.286;9.900;2022-07-23T09:03:02;36.10;43.80
47805;DHT22;33568;45.286;9.900;2022-07-23T09:05:30;36.00;43.80
47805;DHT22;33568;45.286;9.900;2022-07-23T09:08:14;36.20;44.30
47805;DHT22;33568;45.286;9.900;2022-07-23T09:13:35;36.60;43.50
47805;DHT22;33568;45.286;9.900;2022-07-23T09:18:43;36.60;43.30
47805;DHT22;33568;45.286;9.900;2022-07-23T09:31:22;36.70;45.40
47805;DHT22;33568;45.286;9.900;2022-07-23T09:33:49;36.60;45.50
47805;DHT22;33568;45.286;9.900;2022-07-23T09:36:18;36.50;45.50
47805;DHT22;33568;45.286;9.900;2022-07-23T09:38:53;36.60;45.60
47805;DHT22;33568;45.286;9.900;2022-07-23T09:41:20;36.60;45.50
47805;DHT22;33568;45.286;9.900;2022-07-23T09:43:46;36.60;45.50
47805;DHT22;33568;45.286;9.900;2022-07-23T09:46:25;36.60;45.30
47805;DHT22;33568;45.286;9.900;2022-07-23T09:48:53;36.50;45.20
47805;DHT22;33568;45.286;9.900;2022-07-23T09:51:20;36.60;45.40
47805;DHT22;33568;45.286;9.900;2022-07-23T09:53:55;36.70;45.30
47805;DHT22;33568;45.286;9.900;2022-07-23T09:56:22;36.70;45.20
47805;DHT22;33568;45.286;9.900;2022-07-23T09:58:52;36.80;45.10
47805;DHT22;33568;45.286;9.900;2022-07-23T10:01:29;37.00;44.90
47805;DHT22;33568;45.286;9.900;2022-07-23T10:03:57;37.10;45.00
47805;DHT22;33568;45.286;9.900;2022-07-23T10:06:45;37.20;44.80
47805;DHT22;33568;45.286;9.900;2022-07-23T10:09:39;37.30;45.00
47805;DHT22;33568;45.286;9.900;2022-07-23T10:12:26;37.20;44.90
47805;DHT22;33568;45.286;9.900;2022-07-23T10:15:02;37.30;45.00
47805;DHT22;33568;45.286;9.900;2022-07-23T10:17:29;37.50;44.90
47805;DHT22;33568;45.286;9.900;2022-07-23T10:19:56;37.50;44.90
47805;DHT22;33568;45.286;9.900;2022-07-23T10:22:26;37.30;44.90
47805;DHT22;33568;45.286;9.900;2022-07-23T10:39:22;37.60;44.50
47805;DHT22;33568;45.286;9.900;2022-07-23T10:41:51;37.60;44.20
47805;DHT22;33568;45.286;9.900;2022-07-23T10:44:20;37.70;44.20
47805;DHT22;33568;45.286;9.900;2022-07-23T10:49:39;38.10;43.90
47805;DHT22;33568;45.286;9.900;2022-07-23T10:57:28;39.00;43.90
47805;DHT22;33568;45.286;9.900;2022-07-23T11:02:31;39.20;43.30
47805;DHT22;33568;45.286;9.900;2022-07-23T11:05:02;39.40;43.00
47805;DHT22;33568;45.286;9.900;2022-07-23T11:07:29;39.50;42.90
47805;DHT22;33568;45.286;9.900;2022-07-23T11:09:57;39.50;42.80
47805;DHT22;33568;45.286;9.900;2022-07-23T11:15:16;39.60;42.80
47805;DHT22;33568;45.286;9.900;2022-07-23T11:20:21;39.70;42.50
47805;DHT22;33568;45.286;9.900;2022-07-23T11:22:50;39.70;42.70
47805;DHT22;33568;45.286;9.900;2022-07-23T11:27:49;39.70;42.60
47805;DHT22;33568;45.286;9.900;2022-07-23T11:35:41;39.70;42.70
47805;DHT22;33568;45.286;9.900;2022-07-23T11:38:22;39.70;42.70
47805;DHT22;33568;45.286;9.900;2022-07-23T11:40:52;39.70;42.20
47805;DHT22;33568;45.286;9.900;2022-07-23T11:43:21;39.80;42.10
47805;DHT22;33568;45.286;9.900;2022-07-23T11:45:53;39.90;41.90
47805;DHT22;33568;45.286;9.900;2022-07-23T11:50:47;39.90;42.10
47805;DHT22;33568;45.286;9.900;2022-07-23T11:53:20;39.80;41.90
47805;DHT22;33568;45.286;9.900;2022-07-23T11:55:47;39.70;42.10
47805;DHT22;33568;45.286;9.900;2022-07-23T11:58:13;39.70;41.70
47805;DHT22;33568;45.286;9.900;2022-07-23T12:00:41;39.60;41.90
47805;DHT22;33568;45.286;9.900;2022-07-23T12:03:07;39.70;41.90
47805;DHT22;33568;45.286;9.900;2022-07-23T12:05:36;39.70;41.80
47805;DHT22;33568;45.286;9.900;2022-07-23T12:08:05;39.70;41.50
47805;DHT22;33568;45.286;9.900;2022-07-23T12:10:44;39.90;41.70
47805;DHT22;33568;45.286;9.900;2022-07-23T12:13:19;40.00;41.20
47805;DHT22;33568;45.286;9.900;2022-07-23T12:15:52;40.20;41.50
47805;DHT22;33568;45.286;9.900;2022-07-23T12:18:21;40.20;41.30
47805;DHT22;33568;45.286;9.900;2022-07-23T12:20:53;40.20;41.30
47805;DHT22;33568;45.286;9.900;2022-07-23T12:23:22;40.20;41.10
47805;DHT22;33568;45.286;9.900;2022-07-23T12:25:50;40.30;41.40
47805;DHT22;33568;45.286;9.900;2022-07-23T12:30:53;40.30;41.10
47805;DHT22;33568;45.286;9.900;2022-07-23T12:33:26;40.10;40.80
47805;DHT22;33568;45.286;9.900;2022-07-23T12:35:56;40.00;41.30
47805;DHT22;33568;45.286;9.900;2022-07-23T12:38:25;40.10;41.20
47805;DHT22;33568;45.286;9.900;2022-07-23T12:40:59;40.30;40.90
47805;DHT22;33568;45.286;9.900;2022-07-23T12:43:33;40.40;39.70
47805;DHT22;33568;45.286;9.900;2022-07-23T12:48:36;40.30;39.80
47805;DHT22;33568;45.286;9.900;2022-07-23T12:51:07;40.50;40.30
47805;DHT22;33568;45.286;9.900;2022-07-23T12:53:39;40.80;40.70
47805;DHT22;33568;45.286;9.900;2022-07-23T12:56:15;40.90;40.50
47805;DHT22;33568;45.286;9.900;2022-07-23T13:09:14;41.30;39.90
47805;DHT22;33568;45.286;9.900;2022-07-23T13:11:42;41.40;39.90
47805;DHT22;33568;45.286;9.900;2022-07-23T13:14:09;41.40;39.80
47805;DHT22;33568;45.286;9.900;2022-07-23T13:16:37;41.30;39.90
47805;DHT22;33568;45.286;9.900;2022-07-23T13:19:04;41.30;39.30
47805;DHT22;33568;45.286;9.900;2022-07-23T13:21:31;41.20;39.40
47805;DHT22;33568;45.286;9.900;2022-07-23T13:23:57;41.00;39.10
47805;DHT22;33568;45.286;9.900;2022-07-23T13:26:25;40.70;38.90
47805;DHT22;33568;45.286;9.900;2022-07-23T13:28:52;40.60;39.30
47805;DHT22;33568;45.286;9.900;2022-07-23T13:31:19;40.50;39.80
47805;DHT22;33568;45.286;9.900;2022-07-23T13:33:47;40.40;39.70
47805;DHT22;33568;45.286;9.900;2022-07-23T13:36:13;40.40;40.10
47805;DHT22;33568;45.286;9.900;2022-07-23T13:38:43;40.20;40.10
47805;DHT22;33568;45.286;9.900;2022-07-23T13:41:09;40.00;40.20
47805;DHT22;33568;45.286;9.900;2022-07-23T13:43:36;39.90;40.20
47805;DHT22;33568;45.286;9.900;2022-07-23T13:46:02;39.80;40.40
47805;DHT22;33568;45.286;9.900;2022-07-23T13:48:29;39.60;40.10
47805;DHT22;33568;45.286;9.900;2022-07-23T13:50:56;39.50;40.20
47805;DHT22;33568;45.286;9.900;2022-07-23T13:53:25;39.60;40.30
47805;DHT22;33568;45.286;9.900;2022-07-23T13:55:52;39.60;40.20
47805;DHT22;33568;45.286;9.900;2022-07-23T13:58:19;39.50;40.20
47805;DHT22;33568;45.286;9.900;2022-07-23T14:00:50;39.50;40.40
47805;DHT22;33568;45.286;9.900;2022-07-23T14:03:17;39.70;40.30
47805;DHT22;33568;45.286;9.900;2022-07-23T14:05:44;39.90;40.10
47805;DHT22;33568;45.286;9.900;2022-07-23T14:08:10;39.90;40.20
47805;DHT22;33568;45.286;9.900;2022-07-23T14:10:37;39.90;40.40
47805;DHT22;33568;45.286;9.900;2022-07-23T14:13:03;39.90;40.70
47805;DHT22;33568;45.286;9.900;2022-07-23T14:15:31;39.80;40.60
47805;DHT22;33568;45.286;9.900;2022-07-23T14:17:58;40.00;40.80
47805;DHT22;33568;45.286;9.900;2022-07-23T14:20:26;40.00;40.60
47805;DHT22;33568;45.286;9.900;2022-07-23T14:22:53;40.20;40.90
47805;DHT22;33568;45.286;9.900;2022-07-23T14:25:21;40.30;40.70
47805;DHT22;33568;45.286;9.900;2022-07-23T14:27:48;40.30;40.90
47805;DHT22;33568;45.286;9.900;2022-07-23T14:30:14;40.40;41.10
47805;DHT22;33568;45.286;9.900;2022-07-23T14:32:41;40.60;41.10
47805;DHT22;33568;45.286;9.900;2022-07-23T14:35:08;40.70;41.20
47805;DHT22;33568;45.286;9.900;2022-07-23T14:37:35;40.60;41.10
47805;DHT22;33568;45.286;9.900;2022-07-23T14:40:02;40.30;41.40
47805;DHT22;33568;45.286;9.900;2022-07-23T14:42:29;40.10;41.70
47805;DHT22;33568;45.286;9.900;2022-07-23T14:44:55;39.90;42.10
47805;DHT22;33568;45.286;9.900;2022-07-23T14:47:22;39.80;42.30
47805;DHT22;33568;45.286;9.900;2022-07-23T14:49:49;39.70;42.50
47805;DHT22;33568;45.286;9.900;2022-07-23T14:52:16;39.50;42.70
47805;DHT22;33568;45.286;9.900;2022-07-23T14:54:42;39.40;43.10
47805;DHT22;33568;45.286;9.900;2022-07-23T14:57:10;39.40;43.30
47805;DHT22;33568;45.286;9.900;2022-07-23T14:59:36;39.50;43.30
47805;DHT22;33568;45.286;9.900;2022-07-23T15:02:06;39.60;43.30
47805;DHT22;33568;45.286;9.900;2022-07-23T15:04:32;39.80;43.20
47805;DHT22;33568;45.286;9.900;2022-07-23T15:06:59;39.90;43.20
47805;DHT22;33568;45.286;9.900;2022-07-23T15:09:25;39.90;43.20
47805;DHT22;33568;45.286;9.900;2022-07-23T15:11:52;40.00;43.30
47805;DHT22;33568;45.286;9.900;2022-07-23T15:14:18;39.80;43.20
47805;DHT22;33568;45.286;9.900;2022-07-23T15:16:44;39.60;43.30
47805;DHT22;33568;45.286;9.900;2022-07-23T15:19:14;39.60;43.50
47805;DHT22;33568;45.286;9.900;2022-07-23T15:21:40;39.70;43.70
47805;DHT22;33568;45.286;9.900;2022-07-23T15:24:08;39.70;43.80
47805;DHT22;33568;45.286;9.900;2022-07-23T15:26:34;39.70;43.80
47805;DHT22;33568;45.286;9.900;2022-07-23T15:29:01;39.80;43.80
47805;DHT22;33568;45.286;9.900;2022-07-23T15:31:29;39.90;43.80
47805;DHT22;33568;45.286;9.900;2022-07-23T15:33:55;40.10;43.70
47805;DHT22;33568;45.286;9.900;2022-07-23T15:36:22;40.10;43.60
47805;DHT22;33568;45.286;9.900;2022-07-23T15:38:49;40.10;43.60
47805;DHT22;33568;45.286;9.900;2022-07-23T15:41:16;39.90;43.70
47805;DHT22;33568;45.286;9.900;2022-07-23T15:43:42;39.80;43.90
47805;DHT22;33568;45.286;9.900;2022-07-23T15:46:09;39.70;44.30
47805;DHT22;33568;45.286;9.900;2022-07-23T15:48:36;39.60;44.50
47805;DHT22;33568;45.286;9.900;2022-07-23T15:51:03;39.50;44.70
47805;DHT22;33568;45.286;9.900;2022-07-23T15:53:29;39.50;44.80
47805;DHT22;33568;45.286;9.900;2022-07-23T15:55:56;39.60;45.00
47805;DHT22;33568;45.286;9.900;2022-07-23T15:58:22;39.50;45.00
47805;DHT22;33568;45.286;9.900;2022-07-23T16:00:49;39.60;45.20
47805;DHT22;33568;45.286;9.900;2022-07-23T16:03:15;39.70;45.20
47805;DHT22;33568;45.286;9.900;2022-07-23T16:05:43;39.80;45.20
47805;DHT22;33568;45.286;9.900;2022-07-23T16:08:09;39.90;45.20
47805;DHT22;33568;45.286;9.900;2022-07-23T16:10:36;39.80;45.30
47805;DHT22;33568;45.286;9.900;2022-07-23T16:13:03;39.80;45.30
47805;DHT22;33568;45.286;9.900;2022-07-23T16:15:29;39.80;45.50
47805;DHT22;33568;45.286;9.900;2022-07-23T16:17:56;39.70;45.70
47805;DHT22;33568;45.286;9.900;2022-07-23T16:20:24;39.70;46.00
47805;DHT22;33568;45.286;9.900;2022-07-23T16:22:50;39.60;46.30
47805;DHT22;33568;45.286;9.900;2022-07-23T16:25:17;39.60;46.50
47805;DHT22;33568;45.286;9.900;2022-07-23T16:27:43;39.60;47.00
47805;DHT22;33568;45.286;9.900;2022-07-23T16:30:11;39.50;47.20
47805;DHT22;33568;45.286;9.900;2022-07-23T16:32:38;39.40;47.40
47805;DHT22;33568;45.286;9.900;2022-07-23T16:35:05;39.20;47.70
47805;DHT22;33568;45.286;9.900;2022-07-23T16:37:32;39.10;48.00
47805;DHT22;33568;45.286;9.900;2022-07-23T16:40:00;39.00;48.50
47805;DHT22;33568;45.286;9.900;2022-07-23T16:42:26;38.90;48.80
47805;DHT22;33568;45.286;9.900;2022-07-23T16:44:55;38.80;48.80
47805;DHT22;33568;45.286;9.900;2022-07-23T16:47:22;38.90;49.10